Terminal Aerodrome Forecast
Issued by NWS Charleston, WV

Current Version | Previous Version | Graphics & Text | Print | Product List | Glossary On
Versions: 1 2 3 4 5 6 7 8 9 10 11 12 13 14 15 16 17 18 19 20 21 22 23 24 25 26 27 28 29
000
FTUS41 KRLX 201700 RRA
TAFPKB
TAF
KPKB 201741Z 2018/2118 18009KT P6SM SCT110
     FM201900 20008G13KT P6SM SCT050
     FM202200 21006KT P6SM BKN080
     FM210000 VRB03KT P6SM OVC040
     FM210500 23004KT P6SM BKN025
     FM210800 27004KT P6SM BKN035
     FM211300 27006KT P6SM OVC030
     FM211500 29007KT P6SM OVC020=

USA.gov is the U.S. government's official web portal to all federal, state and local government web resources and services.